Time;durP1;ratioP1;P1;durP2;ratioP2;P2;SDS_P1;SDS_P2;PMS_P1;PMS_P2;Temp;Humidity;BMP_temperature;BMP_pressure;BME280_temperature;BME280_humidity;BME280_pressure;Samples;Min_cycle;Max_cycle;Signal;HPM_P1;HPM_P2
2022/08/25 00:02:07;;;;;;;14.83;13.13;;;18.10;97.30;;;17.88;83.63;98167.88;5056513;28;20444;-79
2022/08/25 00:04:35;;;;;;;14.23;12.93;;;18.10;97.10;;;17.81;83.61;98152.50;5061460;28;20460;-80
2022/08/25 00:07:04;;;;;;;14.50;12.53;;;18.10;97.20;;;17.82;83.99;98153.34;5064972;28;20468;-81
2022/08/25 00:09:34;;;;;;;13.60;12.27;;;18.00;97.60;;;17.68;84.16;98142.03;5060358;28;20467;-80
2022/08/25 00:12:05;;;;;;;14.97;13.53;;;18.00;97.20;;;17.78;84.35;98158.50;5056892;28;20553;-79
2022/08/25 00:14:36;;;;;;;14.33;12.90;;;17.90;98.00;;;17.72;84.71;98155.97;5060836;28;20464;-79
2022/08/25 00:17:06;;;;;;;13.43;12.00;;;17.90;97.90;;;17.51;85.59;98142.94;5060432;28;20457;-80
2022/08/25 00:19:36;;;;;;;15.07;12.40;;;17.80;99.20;;;17.70;86.71;98146.13;5057116;28;20468;-79
2022/08/25 00:22:04;;;;;;;13.77;12.50;;;17.80;99.90;;;17.70;86.99;98156.25;5059584;28;20487;-78
2022/08/25 00:24:34;;;;;;;13.27;12.07;;;17.90;99.90;;;17.70;86.03;98164.44;5076238;28;20456;-78
2022/08/25 00:27:01;;;;;;;14.00;12.70;;;17.80;99.90;;;17.53;85.54;98142.69;5066283;28;20835;-78
2022/08/25 00:29:31;;;;;;;14.80;13.30;;;17.80;99.70;;;17.66;85.26;98155.09;5062471;28;20529;-80
2022/08/25 00:31:59;;;;;;;14.60;13.20;;;17.80;99.20;;;17.62;85.82;98148.50;5058638;28;20559;-81
2022/08/25 00:34:36;;;;;;;14.13;12.90;;;17.80;99.90;;;17.53;85.93;98151.72;5069360;28;20499;-81
2022/08/25 00:37:08;;;;;;;16.40;14.43;;;17.70;99.60;;;17.48;86.48;98159.03;5069093;28;20444;-81
2022/08/25 00:39:38;;;;;;;15.07;13.50;;;17.60;99.90;;;17.62;86.73;98154.81;5075540;28;20460;-80
2022/08/25 00:42:07;;;;;;;15.10;13.70;;;17.70;99.90;;;17.72;85.37;98153.25;5069405;28;20513;-81
2022/08/25 00:44:35;;;;;;;15.63;14.00;;;17.80;99.70;;;17.52;86.23;98139.16;5060886;28;20468;-81
2022/08/25 00:47:05;;;;;;;14.03;12.87;;;17.80;99.80;;;17.51;85.64;98137.47;5063636;28;20464;-81
2022/08/25 00:49:40;;;;;;;15.23;13.73;;;17.80;99.30;;;17.64;86.10;98151.81;5054491;28;20459;-81
2022/08/25 00:52:11;;;;;;;15.90;14.30;;;17.80;99.90;;;17.64;86.09;98157.25;5055771;28;20459;-78
2022/08/25 00:54:45;;;;;;;16.23;14.63;;;17.80;99.60;;;17.60;85.96;98148.78;5059125;28;20467;-80
2022/08/25 00:57:18;;;;;;;15.30;13.87;;;17.80;99.10;;;17.62;85.84;98156.69;5060000;28;20487;-80
2022/08/25 00:59:46;;;;;;;15.00;13.50;;;17.90;98.90;;;17.45;86.99;98163.09;5055079;28;20463;-81
2022/08/25 01:02:15;;;;;;;15.93;13.73;;;17.70;99.90;;;17.53;87.01;98156.34;5076195;28;21097;-80
2022/08/25 01:04:44;;;;;;;15.73;14.13;;;17.70;99.90;;;17.49;86.86;98150.56;5057246;28;20520;-81
2022/08/25 01:07:13;;;;;;;15.87;14.40;;;17.70;99.90;;;16.85;87.31;98059.22;5081698;28;20489;-79
2022/08/25 01:09:42;;;;;;;15.80;14.20;;;17.70;99.90;;;17.41;87.48;98159.22;5073564;28;20465;-79
2022/08/25 01:12:10;;;;;;;16.00;14.60;;;17.60;99.90;;;17.32;87.96;98149.84;5069837;28;20460;-79
2022/08/25 01:14:38;;;;;;;16.70;15.03;;;17.50;99.90;;;17.34;87.98;98153.13;5061360;28;20459;-79
2022/08/25 01:17:06;;;;;;;17.70;14.50;;;17.50;99.90;;;17.50;87.76;98135.81;5055258;28;20465;-80
2022/08/25 01:19:34;;;;;;;15.87;14.43;;;17.60;99.90;;;17.46;87.06;98129.22;5071675;28;20464;-80
2022/08/25 01:22:04;;;;;;;16.67;15.07;;;17.70;99.90;;;17.48;87.53;98140.72;5064272;28;20467;-80
2022/08/25 01:24:39;;;;;;;16.40;14.90;;;17.70;99.90;;;17.52;87.34;98141.88;5073763;28;20464;-80
2022/08/25 01:27:07;;;;;;;16.40;14.90;;;17.70;99.90;;;17.52;87.21;98139.16;5067144;28;20461;-79
2022/08/25 01:29:37;;;;;;;17.37;15.67;;;17.80;99.90;;;17.51;87.33;98137.47;5080693;28;20467;-77
2022/08/25 01:32:08;;;;;;;15.70;14.20;;;17.70;99.90;;;17.40;87.59;98131.09;5077394;28;20460;-81
2022/08/25 01:34:40;;;;;;;16.40;14.73;;;17.70;99.90;;;17.40;88.18;98141.19;5057816;28;20550;-79
2022/08/25 01:37:10;;;;;;;16.03;14.53;;;17.60;99.90;;;17.33;88.19;98133.22;5057691;28;20494;-80
2022/08/25 01:39:38;;;;;;;16.13;14.60;;;17.60;99.90;;;17.31;88.59;98140.00;5093698;28;20449;-79
2022/08/25 01:42:23;;;;;;;16.83;15.23;;;17.60;99.90;;;17.36;88.53;98140.03;5056485;28;21045;-76
2022/08/25 01:44:51;;;;;;;17.03;15.23;;;17.60;99.90;;;17.22;88.69;98126.00;5091959;28;20448;-80
2022/08/25 01:47:23;;;;;;;17.00;15.47;;;17.60;99.90;;;16.94;89.17;98073.25;5060785;28;20483;-79
2022/08/25 01:49:50;;;;;;;17.40;15.80;;;17.50;99.90;;;17.23;89.01;98133.94;5059668;28;20472;-78
2022/08/25 01:52:28;;;;;;;20.23;16.63;;;17.50;99.90;;;17.13;89.56;98129.16;5058713;28;20464;-79
2022/08/25 01:54:55;;;;;;;16.53;14.73;;;17.40;99.90;;;17.17;89.62;98134.94;5062203;28;20466;-80
2022/08/25 01:57:24;;;;;;;18.23;15.50;;;17.40;99.90;;;17.16;89.74;98136.03;5057496;28;20528;-78
2022/08/25 01:59:51;;;;;;;17.90;16.20;;;17.40;99.90;;;17.14;89.89;98127.25;5068515;28;20472;-78
2022/08/25 02:02:22;;;;;;;16.53;14.90;;;17.40;99.90;;;17.03;90.42;98133.69;5060881;28;20456;-79
2022/08/25 02:04:49;;;;;;;18.60;16.80;;;17.20;99.90;;;16.65;91.10;98093.38;5062048;28;20785;-77
2022/08/25 02:07:16;;;;;;;17.30;15.60;;;17.20;99.90;;;16.71;90.61;98086.91;5057397;28;20548;-78
2022/08/25 02:09:46;;;;;;;17.30;15.60;;;17.20;99.90;;;16.79;91.12;98123.00;5057629;28;20456;-78
2022/08/25 02:12:14;;;;;;;17.50;15.80;;;17.10;99.90;;;16.84;92.06;98133.97;5053826;28;20467;-78
2022/08/25 02:14:42;;;;;;;17.67;15.97;;;17.00;99.90;;;16.78;91.97;98135.00;5055710;28;20452;-79
2022/08/25 02:17:09;;;;;;;19.17;17.17;;;16.90;99.90;;;16.27;92.11;98065.88;5057464;28;20859;-79
2022/08/25 02:19:38;;;;;;;18.70;16.80;;;16.90;99.90;;;16.66;92.80;98141.41;5057311;28;20491;-78
2022/08/25 02:22:05;;;;;;;17.97;16.37;;;16.80;99.90;;;16.68;93.61;98132.94;5062610;28;20564;-79
2022/08/25 02:24:34;;;;;;;18.97;17.07;;;16.80;99.90;;;16.77;93.08;98133.34;5066810;28;20467;-77
2022/08/25 02:27:02;;;;;;;17.70;16.00;;;16.80;99.90;;;16.71;93.25;98127.81;5060755;28;20502;-78
2022/08/25 02:29:31;;;;;;;18.23;16.53;;;17.00;99.90;;;16.88;92.60;98137.84;5056482;28;20546;-78
2022/08/25 02:31:59;;;;;;;17.70;16.00;;;17.00;99.90;;;16.82;92.30;98136.13;5059450;28;20468;-78
2022/08/25 02:34:27;;;;;;;18.93;17.03;;;17.00;99.90;;;16.78;92.71;98121.38;5061543;28;20461;-78
2022/08/25 02:36:54;;;;;;;17.50;15.90;;;17.00;99.90;;;16.75;93.12;98124.56;5062235;28;20526;-78
2022/08/25 02:39:21;;;;;;;17.27;15.57;;;16.90;99.90;;;16.25;92.57;98023.59;5054106;28;20478;-79
2022/08/25 02:41:50;;;;;;;19.60;17.50;;;17.00;99.90;;;16.76;92.75;98120.78;5069848;28;20514;-80
2022/08/25 02:44:18;;;;;;;18.50;16.53;;;16.90;99.90;;;16.46;93.41;98078.41;5068725;28;20455;-78
2022/08/25 02:46:46;;;;;;;20.03;18.03;;;16.90;99.90;;;16.72;94.10;98101.38;5068257;28;20466;-79
2022/08/25 02:49:14;;;;;;;18.93;17.03;;;16.90;99.90;;;16.73;93.07;98104.91;5072640;28;20464;-79
2022/08/25 02:51:41;;;;;;;18.63;16.67;;;16.90;99.90;;;16.84;92.90;98106.69;5070760;28;20463;-79
2022/08/25 02:54:09;;;;;;;19.57;17.67;;;17.00;99.90;;;16.54;92.63;98050.69;5068769;28;20468;-78
2022/08/25 02:56:37;;;;;;;19.60;17.50;;;17.10;99.90;;;16.67;93.41;98085.75;5061795;28;20978;-78
2022/08/25 02:59:04;;;;;;;18.63;16.80;;;17.10;99.90;;;16.71;93.03;98081.44;5059114;28;20472;-79
2022/08/25 03:01:34;;;;;;;19.80;17.80;;;17.20;99.90;;;16.76;93.30;98094.31;5064415;28;20492;-78
2022/08/25 03:04:02;;;;;;;18.90;17.00;;;17.10;99.90;;;16.83;93.34;98102.31;5066754;28;20522;-78
2022/08/25 03:06:30;;;;;;;19.83;18.03;;;17.10;99.90;;;16.89;92.98;98098.56;5056796;28;20464;-79
2022/08/25 03:08:58;;;;;;;19.97;18.00;;;17.10;99.90;;;16.69;93.35;98094.50;5062882;28;20474;-78
2022/08/25 03:11:25;;;;;;;21.30;19.30;;;17.10;99.90;;;16.81;92.93;98102.56;5064448;28;20876;-78
2022/08/25 03:13:55;;;;;;;19.53;17.63;;;17.10;99.90;;;16.55;93.95;98099.53;5057024;28;20460;-82
2022/08/25 03:16:23;;;;;;;21.57;19.37;;;16.90;99.90;;;16.46;94.88;98092.84;5061748;28;20467;-79
2022/08/25 03:18:51;;;;;;;21.70;19.50;;;16.80;99.90;;;16.51;94.88;98106.53;5079551;28;20487;-80
2022/08/25 03:21:19;;;;;;;20.93;18.83;;;16.80;99.90;;;16.53;94.97;98109.03;5063499;28;20449;-79
2022/08/25 03:23:48;;;;;;;19.57;17.60;;;16.70;99.90;;;16.46;94.89;98101.03;5078796;28;20459;-78
2022/08/25 03:29:03;;;;;;;19.73;17.83;;;16.60;99.90;;;16.46;95.51;98111.13;5084809;28;20548;-78
2022/08/25 03:31:32;;;;;;;20.13;18.23;;;16.60;99.90;;;16.51;94.87;98112.00;5065934;28;20459;-79
2022/08/25 03:34:01;;;;;;;21.63;19.47;;;16.70;99.90;;;16.25;96.36;98110.81;5076967;28;20468;-79
2022/08/25 03:36:29;;;;;;;21.53;19.30;;;16.60;99.90;;;16.34;95.93;98114.78;5065373;28;20518;-79
2022/08/25 03:38:58;;;;;;;19.70;17.83;;;16.60;99.90;;;16.38;95.56;98121.38;5064912;28;20471;-79
2022/08/25 03:41:28;;;;;;;21.57;18.80;;;16.60;99.90;;;16.31;95.73;98115.28;5069922;28;20459;-80
2022/08/25 03:43:56;;;;;;;22.10;19.77;;;16.50;99.90;;;16.18;96.13;98118.38;5071890;28;20480;-78
2022/08/25 03:46:27;;;;;;;20.60;18.60;;;16.40;99.90;;;16.18;96.00;98123.81;5054720;28;20468;-79
2022/08/25 03:48:56;;;;;;;20.93;18.63;;;16.40;99.90;;;16.00;96.05;98098.47;5092223;28;20489;-78
2022/08/25 03:51:32;;;;;;;20.67;18.20;;;16.40;99.90;;;16.03;95.55;98097.97;5060223;28;20454;-79
2022/08/25 03:54:03;;;;;;;20.73;18.63;;;16.40;99.90;;;16.13;95.68;98119.91;5059487;28;20993;-81
2022/08/25 03:56:30;;;;;;;21.47;19.37;;;16.40;99.90;;;16.13;96.58;98106.28;5057649;28;20462;-79
2022/08/25 03:58:59;;;;;;;21.37;19.27;;;16.30;99.90;;;16.06;97.20;98104.81;5075350;28;20861;-80
2022/08/25 04:01:26;;;;;;;24.57;19.80;;;16.40;99.90;;;16.04;97.54;98105.06;5063539;28;20455;-79
2022/08/25 04:03:57;;;;;;;21.33;19.20;;;16.30;99.90;;;16.00;97.29;98103.94;5090761;28;20469;-79
2022/08/25 04:06:26;;;;;;;22.50;20.13;;;16.30;99.90;;;15.70;97.57;98050.59;5056512;28;20471;-79
2022/08/25 04:08:53;;;;;;;22.93;20.53;;;16.30;99.90;;;15.82;98.00;98059.47;5070059;28;20540;-80
2022/08/25 04:11:23;;;;;;;21.33;19.23;;;16.20;99.90;;;15.99;98.16;98080.44;5058692;28;20581;-81
2022/08/25 04:13:51;;;;;;;22.23;20.07;;;16.20;99.90;;;15.96;98.59;98080.97;5059649;28;20962;-79
2022/08/25 04:16:21;;;;;;;22.63;20.33;;;16.10;99.90;;;16.02;98.10;98082.69;5067576;28;20535;-79
2022/08/25 04:18:51;;;;;;;23.90;21.50;;;16.20;99.90;;;16.03;97.61;98076.19;5065333;28;20491;-78
2022/08/25 04:21:20;;;;;;;23.67;19.87;;;16.30;99.90;;;16.14;96.99;98077.94;5057230;28;21215;-78
2022/08/25 04:23:51;;;;;;;22.23;18.80;;;16.30;99.90;;;16.17;96.96;98084.81;5071926;28;20978;-78
2022/08/25 04:26:22;;;;;;;22.57;19.80;;;16.40;99.90;;;16.14;97.15;98088.06;5058147;28;20976;-81
2022/08/25 04:28:49;;;;;;;20.73;18.50;;;16.40;99.90;;;16.19;96.60;98090.03;5061093;28;20487;-80
2022/08/25 04:31:21;;;;;;;21.50;19.30;;;16.40;99.90;;;16.07;96.92;98087.38;5062815;28;20497;-81
2022/08/25 04:33:48;;;;;;;20.70;18.63;;;16.30;99.90;;;16.21;96.17;98094.13;5057892;28;20467;-80
2022/08/25 04:36:18;;;;;;;22.60;20.43;;;16.40;99.90;;;16.24;95.50;98092.81;5061865;28;20927;-79
2022/08/25 04:38:49;;;;;;;22.50;19.83;;;16.40;99.90;;;16.26;95.55;98096.13;5056002;28;20525;-81
2022/08/25 04:41:20;;;;;;;22.63;20.30;;;16.50;99.90;;;16.31;95.28;98098.94;5059522;28;21392;-83
2022/08/25 04:43:48;;;;;;;22.83;20.13;;;16.50;99.90;;;16.47;94.68;98099.16;5054158;28;21217;-80
2022/08/25 04:46:18;;;;;;;21.97;19.23;;;16.70;99.90;;;16.52;93.85;98094.56;5050463;28;20467;-77
2022/08/25 04:48:46;;;;;;;21.13;18.83;;;16.80;99.90;;;16.80;92.33;98100.09;5054726;28;20482;-77
2022/08/25 04:51:17;;;;;;;20.60;18.63;;;17.10;99.90;;;17.03;89.98;98103.66;5053480;28;20456;-75
2022/08/25 04:53:45;;;;;;;21.80;19.43;;;17.30;99.90;;;17.05;89.42;98115.13;5051547;28;20471;-76
2022/08/25 04:56:15;;;;;;;20.00;18.13;;;17.40;99.90;;;17.33;89.08;98102.34;5054433;28;20466;-77
2022/08/25 04:58:43;;;;;;;18.97;17.00;;;17.60;99.90;;;17.73;87.86;98112.00;5059550;28;20462;-71
2022/08/25 05:01:14;;;;;;;21.23;19.23;;;18.10;99.90;;;18.49;83.32;98107.34;5048838;28;20467;-70
2022/08/25 05:03:44;;;;;;;19.87;17.97;;;18.80;95.60;;;18.83;80.33;98117.09;5054283;28;20798;-77
2022/08/25 05:06:11;;;;;;;19.57;17.77;;;19.40;92.50;;;19.12;78.41;98124.91;5051769;28;20456;-74
2022/08/25 05:08:39;;;;;;;19.33;17.43;;;19.80;91.00;;;19.23;78.02;98115.63;5053743;28;20488;-76
2022/08/25 05:11:11;;;;;;;20.63;16.00;;;20.00;90.80;;;19.78;76.08;98101.44;5052714;28;20533;-74
2022/08/25 05:13:42;;;;;;;18.20;16.30;;;20.50;90.40;;;19.89;74.73;98109.69;5071584;28;20443;-74
2022/08/25 05:16:10;;;;;;;19.57;15.13;;;20.90;88.60;;;20.13;73.35;98109.16;5054747;28;20454;-72
2022/08/25 05:18:39;;;;;;;20.03;16.43;;;21.00;87.90;;;20.43;72.62;98102.78;5058721;28;20487;-74
2022/08/25 05:21:11;;;;;;;18.03;16.13;;;21.30;87.60;;;20.63;71.26;98101.91;5056603;28;20967;-74
2022/08/25 05:23:40;;;;;;;17.73;15.97;;;21.40;87.10;;;20.83;70.00;98093.91;5057012;28;20461;-74
2022/08/25 05:26:12;;;;;;;17.10;15.43;;;21.60;86.40;;;21.35;68.35;98084.28;5055530;28;21042;-75
2022/08/25 05:28:41;;;;;;;17.67;16.00;;;21.80;86.10;;;21.52;67.62;98089.38;5059652;28;20813;-75
2022/08/25 05:31:11;;;;;;;17.83;16.03;;;22.30;85.20;;;21.68;66.83;98086.56;5056881;28;20833;-75
2022/08/25 05:33:40;;;;;;;16.87;15.37;;;22.60;84.20;;;21.68;66.76;98083.81;5053902;28;20480;-75
2022/08/25 05:36:11;;;;;;;16.50;14.80;;;22.50;84.20;;;21.81;66.44;98087.81;5052500;28;20575;-74
2022/08/25 05:38:40;;;;;;;17.77;15.97;;;22.70;83.80;;;21.81;66.42;98087.00;5066040;28;21262;-73
2022/08/25 05:41:11;;;;;;;17.73;15.90;;;22.70;83.70;;;21.94;66.07;98083.59;5059960;28;20467;-75
2022/08/25 05:43:43;;;;;;;17.73;16.03;;;22.70;83.70;;;21.73;66.94;98089.25;5063314;28;20460;-75
2022/08/25 05:46:11;;;;;;;18.60;16.70;;;22.50;83.80;;;21.32;68.54;98075.81;5055746;28;20463;-71
2022/08/25 05:48:39;;;;;;;19.43;17.73;;;22.40;84.10;;;20.99;69.58;98080.91;5060121;28;20532;-71
2022/08/25 05:51:10;;;;;;;17.83;15.60;;;21.80;85.00;;;20.88;70.36;98080.97;5057737;28;20931;-69
2022/08/25 05:53:40;;;;;;;21.23;17.20;;;21.50;85.70;;;20.35;73.09;98089.66;5054867;28;20533;-74
2022/08/25 05:56:08;;;;;;;18.50;16.70;;;21.10;86.80;;;20.01;74.41;98096.53;5054501;28;20456;-73
2022/08/25 05:58:35;;;;;;;19.33;16.20;;;20.70;87.90;;;19.61;76.31;98089.94;5058377;28;20528;-73
2022/08/25 06:03:47;;;;;;;18.37;16.40;;;19.90;90.40;;;18.97;79.72;98085.41;5083201;28;20850;-74
2022/08/25 06:06:15;;;;;;;19.33;17.20;;;19.50;91.50;;;18.97;79.68;98079.13;5065907;28;20837;-73
2022/08/25 06:08:43;;;;;;;20.60;17.73;;;19.40;92.20;;;19.08;78.82;98053.44;5066422;28;20472;-74
2022/08/25 06:11:11;;;;;;;20.07;18.03;;;19.50;92.50;;;19.43;78.16;98085.81;5067872;28;20456;-75
2022/08/25 06:13:39;;;;;;;19.07;17.17;;;19.60;92.10;;;19.70;77.12;98085.56;5071223;28;21002;-73
2022/08/25 06:16:07;;;;;;;21.80;19.60;;;19.80;91.70;;;19.88;76.28;98086.09;5063963;28;20479;-74
2022/08/25 06:18:35;;;;;;;19.03;17.33;;;20.00;91.30;;;19.99;75.73;98082.28;5064748;28;20454;-74
2022/08/25 06:21:09;;;;;;;18.63;16.80;;;20.20;91.00;;;19.91;76.06;98074.59;5069664;28;20473;-74
2022/08/25 06:23:39;;;;;;;18.97;17.03;;;20.20;90.80;;;19.82;76.62;98083.38;5068684;28;20477;-74
2022/08/25 06:26:07;;;;;;;18.30;16.50;;;20.20;91.00;;;19.88;76.65;98077.88;5058295;28;20552;-73
2022/08/25 06:28:35;;;;;;;18.53;16.83;;;20.30;91.00;;;20.15;76.01;98072.13;5055296;28;20586;-73
2022/08/25 06:31:02;;;;;;;19.40;17.60;;;20.40;90.90;;;20.53;73.74;98064.34;5062312;28;20966;-73
2022/08/25 06:33:31;;;;;;;19.10;17.30;;;20.70;90.40;;;20.60;73.72;98065.97;5056792;28;20551;-74
2022/08/25 06:35:59;;;;;;;19.70;17.80;;;20.90;90.30;;;20.77;73.09;98079.34;5061765;28;20952;-74
2022/08/25 06:38:28;;;;;;;16.83;14.63;;;21.10;90.00;;;20.99;72.27;98069.94;5060268;28;20531;-75
2022/08/25 06:40:55;;;;;;;17.67;15.97;;;21.20;89.50;;;20.80;72.72;98073.28;5060241;28;20472;-73
2022/08/25 06:43:24;;;;;;;17.37;15.87;;;21.20;89.20;;;21.17;71.82;98072.03;5058804;28;20461;-72
2022/08/25 06:45:51;;;;;;;17.57;15.97;;;21.30;89.30;;;21.39;71.02;98070.78;5054363;28;20456;-75
2022/08/25 06:48:19;;;;;;;19.23;16.10;;;21.50;89.00;;;21.41;70.86;98065.84;5063221;28;20473;-77
2022/08/25 06:50:48;;;;;;;17.83;16.10;;;21.60;88.70;;;21.54;69.86;98074.53;5061089;28;21312;-74
2022/08/25 06:53:15;;;;;;;17.17;15.47;;;21.70;88.30;;;21.40;70.40;98075.19;5061336;28;20464;-73
2022/08/25 06:55:43;;;;;;;19.80;16.33;;;21.60;88.30;;;21.46;70.30;98075.97;5055630;28;20479;-74
2022/08/25 06:58:10;;;;;;;17.83;16.13;;;21.70;88.20;;;21.45;70.95;98069.63;5053933;28;20457;-73
2022/08/25 07:00:37;;;;;;;16.13;14.73;;;21.60;88.70;;;21.44;71.18;98065.25;5056186;28;20569;-75
2022/08/25 07:03:05;;;;;;;18.17;16.47;;;21.70;88.60;;;21.35;70.77;98056.78;5062383;28;20971;-76
2022/08/25 07:05:32;;;;;;;17.20;14.90;;;21.70;88.30;;;21.37;70.70;98062.03;5067226;28;20458;-73
2022/08/25 07:08:01;;;;;;;17.20;15.40;;;21.60;88.20;;;21.39;71.29;98059.81;5068360;28;20496;-75
2022/08/25 07:10:29;;;;;;;17.37;15.83;;;21.50;88.90;;;21.36;70.43;98035.66;5063808;28;20478;-73
2022/08/25 07:12:56;;;;;;;16.80;15.00;;;21.70;88.40;;;21.68;71.11;98058.22;5069550;28;20812;-73
2022/08/25 07:15:25;;;;;;;18.43;15.87;;;21.80;88.80;;;21.59;70.20;98049.75;5071449;28;20501;-75
2022/08/25 07:17:52;;;;;;;16.47;15.07;;;21.80;88.20;;;21.72;69.56;98043.63;5066071;28;20457;-71
2022/08/25 07:20:22;;;;;;;14.40;13.20;;;21.90;88.00;;;21.99;69.34;98050.53;5068170;28;21021;-81
2022/08/25 07:22:49;;;;;;;15.80;14.20;;;22.00;88.10;;;22.03;68.43;98043.34;5064129;28;21311;-76
2022/08/25 07:25:19;;;;;;;15.90;14.40;;;22.20;87.50;;;22.01;69.18;98040.06;5041861;28;20468;-80
2022/08/25 07:27:46;;;;;;;14.70;13.20;;;22.20;87.80;;;22.14;68.74;98037.75;5067614;28;20506;-79
2022/08/25 07:30:16;;;;;;;16.03;14.50;;;22.20;87.70;;;22.15;68.34;98034.72;5064400;28;20588;-77
2022/08/25 07:32:43;;;;;;;15.73;14.10;;;22.30;87.30;;;22.10;68.75;98036.69;5058724;28;20819;-74
2022/08/25 07:35:19;;;;;;;14.20;12.90;;;22.20;87.50;;;22.33;67.46;98029.56;5056436;28;21002;-80
2022/08/25 07:37:49;;;;;;;15.13;13.83;;;22.40;87.10;;;22.21;67.80;98040.97;5057816;28;20465;-76
2022/08/25 07:40:21;;;;;;;15.47;14.07;;;22.40;86.80;;;22.11;68.23;98038.34;5057514;28;20475;-79
2022/08/25 07:42:50;;;;;;;16.80;15.00;;;22.30;86.80;;;22.24;67.83;98021.13;5062929;28;20541;-80
2022/08/25 07:45:19;;;;;;;14.00;12.80;;;22.50;87.20;;;22.16;68.24;98050.09;5059927;28;20977;-79
2022/08/25 07:47:47;;;;;;;14.57;13.37;;;22.40;86.90;;;22.39;67.81;98055.09;5068532;28;20491;-77
2022/08/25 07:50:15;;;;;;;16.07;14.57;;;22.50;87.00;;;22.34;67.34;98051.28;5069617;28;20476;-76
2022/08/25 07:52:43;;;;;;;16.30;14.40;;;22.60;86.60;;;22.53;67.47;98067.06;5068218;28;20452;-77
2022/08/25 07:55:11;;;;;;;15.57;14.13;;;22.60;86.80;;;22.67;66.77;98049.81;5065188;28;20459;-75
2022/08/25 07:57:41;;;;;;;13.43;12.10;;;22.80;86.50;;;23.00;65.16;98052.72;5065598;28;20457;-77
2022/08/25 08:00:12;;;;;;;15.20;13.90;;;22.90;85.80;;;23.01;65.44;98054.34;5067609;28;20474;-77
2022/08/25 08:02:40;;;;;;;14.73;13.53;;;23.10;85.90;;;23.14;64.84;98048.13;5066590;28;20455;-77
2022/08/25 08:05:10;;;;;;;14.70;13.40;;;23.10;85.70;;;23.03;63.31;97984.06;5055774;28;21068;-79
2022/08/25 08:07:38;;;;;;;13.73;12.47;;;23.40;85.20;;;23.53;63.03;98048.09;5054740;28;20479;-77
2022/08/25 08:10:07;;;;;;;16.20;13.47;;;23.60;84.70;;;23.54;63.29;98041.47;5060994;28;20486;-76
2022/08/25 08:12:36;;;;;;;14.53;13.40;;;23.60;84.80;;;23.60;62.25;98043.03;5058166;28;20548;-76
2022/08/25 08:15:06;;;;;;;13.93;12.27;;;23.70;84.20;;;23.68;62.57;98042.34;5061488;28;20473;-76
2022/08/25 08:17:35;;;;;;;13.13;11.50;;;23.70;84.10;;;23.67;61.01;98040.69;5055585;28;21006;-77
2022/08/25 08:20:05;;;;;;;13.63;12.43;;;23.80;83.20;;;23.76;61.27;98047.16;5088338;28;20448;-76
2022/08/25 08:22:32;;;;;;;13.27;12.07;;;23.80;83.00;;;23.87;60.92;98041.47;5094639;28;20480;-78
2022/08/25 08:25:02;;;;;;;11.97;10.97;;;23.90;83.00;;;23.90;61.04;98040.88;5056491;28;20466;-79
2022/08/25 08:27:29;;;;;;;11.07;10.17;;;23.90;82.70;;;23.87;61.21;98035.94;5052510;28;20792;-79
2022/08/25 08:29:56;;;;;;;12.53;11.53;;;23.90;82.80;;;23.72;61.02;98035.09;5061140;28;21086;-78
2022/08/25 08:32:25;;;;;;;12.83;10.87;;;23.90;82.60;;;23.92;60.51;98049.66;5052854;28;20449;-76
2022/08/25 08:34:53;;;;;;;12.70;11.60;;;23.90;82.50;;;23.95;60.48;98035.25;5057465;28;21206;-77
2022/08/25 08:37:21;;;;;;;12.67;11.57;;;24.00;82.30;;;23.98;60.44;98045.69;5076504;28;20452;-75
2022/08/25 08:39:50;;;;;;;11.87;10.73;;;24.10;82.00;;;24.14;59.90;98039.91;5054555;28;20575;-75
2022/08/25 08:42:37;;;;;;;13.53;10.60;;;24.10;82.00;;;24.24;60.12;98039.72;5059727;28;20450;-74
2022/08/25 08:45:22;;;;;;;12.20;11.00;;;24.20;82.10;;;24.15;59.51;98022.22;5062339;28;20475;-70
2022/08/25 08:48:32;;;;;;;12.60;11.30;;;24.30;81.70;;;24.06;59.88;97994.53;5052132;28;20506;-77
2022/08/25 08:51:15;;;;;;;12.60;11.50;;;24.30;81.90;;;24.29;60.08;98028.56;5060755;28;20487;-76
2022/08/25 08:53:49;;;;;;;12.17;10.60;;;24.40;81.90;;;24.55;59.30;98019.78;5053086;28;20477;-75
2022/08/25 08:56:22;;;;;;;13.30;12.10;;;24.50;81.60;;;24.59;58.84;98015.28;5070089;28;20459;-72
2022/08/25 08:58:56;;;;;;;12.40;11.33;;;24.60;81.20;;;24.64;58.37;98019.06;5062395;28;20452;-72
2022/08/25 09:01:28;;;;;;;12.60;11.60;;;24.70;80.80;;;24.77;58.42;98007.19;5053974;28;20456;-74
2022/08/25 09:04:06;;;;;;;12.53;11.43;;;24.80;80.90;;;24.98;58.47;98012.28;5061304;28;20580;-77
2022/08/25 09:06:39;;;;;;;12.53;11.40;;;25.00;81.20;;;25.23;57.33;98012.81;5060835;28;20502;-72
2022/08/25 09:09:12;;;;;;;10.67;9.87;;;25.20;80.60;;;25.27;55.51;98022.13;5080523;28;20460;-70
2022/08/25 09:11:54;;;;;;;11.77;10.63;;;25.40;79.00;;;25.38;54.86;98020.75;5071474;28;20456;-74
2022/08/25 09:14:40;;;;;;;9.80;9.00;;;25.40;78.30;;;25.68;54.23;98012.84;5057942;28;20929;-75
2022/08/25 09:17:17;;;;;;;11.00;10.20;;;25.70;78.00;;;25.64;54.53;98013.81;5053556;28;20458;-73
2022/08/25 09:20:09;;;;;;;10.40;9.60;;;25.60;77.70;;;25.54;53.07;98012.09;5058662;28;20498;-70
2022/08/25 09:22:52;;;;;;;9.70;8.97;;;25.60;76.30;;;25.74;52.86;98022.66;5060036;28;20947;-77
2022/08/25 09:25:29;;;;;;;11.07;10.17;;;25.80;75.90;;;26.07;53.01;98013.22;5064039;28;20485;-82
2022/08/25 09:28:07;;;;;;;11.53;10.40;;;26.00;76.30;;;26.30;52.66;98015.97;5067045;28;20463;-76
2022/08/25 09:30:45;;;;;;;13.10;11.70;;;26.20;76.30;;;26.60;51.87;98024.53;5066171;28;20985;-76
2022/08/25 09:33:19;;;;;;;11.33;10.30;;;26.50;75.70;;;26.70;51.91;98023.41;5063324;28;20463;-75
2022/08/25 09:35:51;;;;;;;10.33;9.53;;;26.70;75.40;;;26.83;51.62;98024.41;5062193;28;20530;-75
2022/08/25 09:38:19;;;;;;;10.93;10.03;;;26.90;74.90;;;26.58;51.36;98016.53;5062003;28;20500;-74
2022/08/25 09:40:48;;;;;;;10.80;9.13;;;26.90;73.90;;;27.09;50.17;98016.19;5101186;28;20493;-76
2022/08/25 09:43:23;;;;;;;10.87;9.97;;;27.00;73.80;;;27.60;48.67;98001.81;5068583;28;20500;-76
2022/08/25 09:46:01;;;;;;;10.70;9.67;;;27.30;72.70;;;28.02;47.85;98003.19;5061163;28;20471;-74
2022/08/25 09:48:36;;;;;;;10.60;9.80;;;27.80;72.30;;;28.03;47.85;97999.25;5062039;28;20460;-79
2022/08/25 09:51:21;;;;;;;11.70;10.70;;;28.00;71.80;;;28.20;47.65;97996.44;5090890;27;20991;-74
2022/08/25 09:53:54;;;;;;;10.53;9.70;;;28.30;70.80;;;28.66;47.03;97987.53;5061850;28;21007;-77
2022/08/25 09:56:26;;;;;;;11.80;10.80;;;28.50;70.60;;;28.65;46.56;97983.13;5060821;28;21030;-75
2022/08/25 09:58:56;;;;;;;11.37;10.27;;;28.60;69.90;;;28.76;46.55;97984.38;5066555;28;20535;-75
2022/08/25 10:01:24;;;;;;;11.10;10.20;;;28.70;69.60;;;28.78;46.24;97984.84;5062565;28;20470;-75
2022/08/25 10:03:59;;;;;;;10.90;10.00;;;28.70;69.30;;;28.54;46.00;97982.72;5066705;28;20593;-75
2022/08/25 10:06:35;;;;;;;12.23;11.20;;;28.60;68.70;;;28.05;47.31;97988.63;5068028;28;20509;-74
2022/08/25 10:09:06;;;;;;;11.93;10.93;;;28.40;68.90;;;27.77;48.88;97997.38;5061153;28;20466;-77
2022/08/25 10:11:41;;;;;;;11.87;10.93;;;28.10;70.10;;;27.92;49.02;97974.63;5057944;28;20467;-75
2022/08/25 10:14:30;;;;;;;11.80;10.70;;;28.10;70.30;;;28.19;48.42;97969.81;5064833;28;20447;-76
2022/08/25 10:17:15;;;;;;;12.03;11.03;;;28.20;70.20;;;28.93;46.29;97968.75;5056748;28;20458;-77
2022/08/25 10:19:43;;;;;;;11.37;10.37;;;28.70;69.30;;;29.25;45.52;97960.78;5057757;28;21062;-76
2022/08/25 10:22:24;;;;;;;11.40;10.30;;;29.00;68.30;;;29.15;45.16;97958.44;5075081;28;20460;-75
2022/08/25 10:24:54;;;;;;;12.10;11.20;;;29.10;67.40;;;28.58;46.68;97950.31;5064290;28;20990;-75